createdAt,value
2023-05-21T00:00:28.064Z,15.18
2023-05-21T00:01:33.500Z,15.43
2023-05-21T00:02:37.318Z,15.77
2023-05-21T00:03:41.280Z,15.07
2023-05-21T00:04:45.306Z,15.75
2023-05-21T00:05:49.083Z,15.15
2023-05-21T00:06:52.818Z,15.90
2023-05-21T00:07:56.680Z,15.37
2023-05-21T00:09:00.351Z,15.95
2023-05-21T00:10:04.334Z,15.75
2023-05-21T00:11:08.228Z,15.30
2023-05-21T00:12:12.073Z,16.23
2023-05-21T00:13:15.930Z,16.00
2023-05-21T00:14:19.835Z,15.38
2023-05-21T00:15:23.728Z,15.35
2023-05-21T00:16:27.538Z,14.98
2023-05-21T00:17:32.943Z,16.05
2023-05-21T00:18:36.764Z,15.03
2023-05-21T00:19:40.503Z,14.27
2023-05-21T00:20:44.216Z,15.45
2023-05-21T00:21:47.910Z,15.82
2023-05-21T00:22:51.759Z,15.55
2023-05-21T00:23:55.528Z,14.70
2023-05-21T00:24:59.261Z,15.77
2023-05-21T00:26:02.933Z,15.80
2023-05-21T00:27:06.821Z,15.48
2023-05-21T00:28:10.577Z,15.27
2023-05-21T00:29:14.384Z,14.87
2023-05-21T00:30:18.121Z,14.98
2023-05-21T00:31:22.115Z,15.65
2023-05-21T00:32:25.993Z,15.23
2023-05-21T00:33:31.508Z,15.82
2023-05-21T00:34:35.918Z,15.70
2023-05-21T00:35:39.641Z,15.60
2023-05-21T00:36:43.380Z,16.48
2023-05-21T00:37:47.162Z,15.32
2023-05-21T00:38:51.621Z,15.25
2023-05-21T00:39:57.503Z,15.67
2023-05-21T00:41:03.089Z,15.77
2023-05-21T00:42:07.058Z,15.73
2023-05-21T00:43:10.803Z,16.27
2023-05-21T00:44:14.493Z,15.60
2023-05-21T00:45:18.357Z,15.03
2023-05-21T00:46:23.306Z,16.00
2023-05-21T00:47:27.391Z,15.88
2023-05-21T00:48:32.889Z,16.02
2023-05-21T00:49:36.597Z,15.75
2023-05-21T00:50:40.580Z,15.80
2023-05-21T00:51:44.288Z,15.35
2023-05-21T00:52:48.184Z,15.13
2023-05-21T00:53:53.282Z,17.05
2023-05-21T00:54:57.446Z,16.30
2023-05-21T00:56:01.224Z,16.47
2023-05-21T00:57:05.803Z,16.67
2023-05-21T00:58:09.838Z,15.43
2023-05-21T00:59:13.781Z,16.67
2023-05-21T01:00:17.751Z,15.50
2023-05-21T01:01:21.554Z,15.83
2023-05-21T01:02:25.505Z,16.15
2023-05-21T01:03:29.414Z,16.17
2023-05-21T01:04:35.000Z,15.48
2023-05-21T01:05:39.189Z,16.75
2023-05-21T01:06:42.875Z,16.27
2023-05-21T01:07:46.977Z,15.98
2023-05-21T01:08:50.930Z,15.88
2023-05-21T01:09:54.801Z,16.23
2023-05-21T01:10:59.984Z,14.77
2023-05-21T01:12:04.013Z,16.00
2023-05-21T01:13:07.956Z,16.30
2023-05-21T01:14:13.298Z,16.00
2023-05-21T01:15:17.393Z,15.95
2023-05-21T01:16:21.672Z,16.70
2023-05-21T01:17:26.283Z,16.20
2023-05-21T01:18:30.422Z,15.38
2023-05-21T01:19:35.903Z,15.70
2023-05-21T01:20:39.809Z,15.88
2023-05-21T01:21:47.019Z,16.65
2023-05-21T01:22:56.275Z,15.30
2023-05-21T01:24:00.152Z,16.27
2023-05-21T01:25:04.983Z,15.85
2023-05-21T01:26:08.692Z,15.52
2023-05-21T01:27:12.416Z,15.55
2023-05-21T01:28:16.458Z,16.80
2023-05-21T01:29:20.193Z,16.42
2023-05-21T01:30:25.374Z,16.63
2023-05-21T01:31:32.230Z,16.10
2023-05-21T01:32:42.370Z,14.80
2023-05-21T01:33:50.799Z,15.37
2023-05-21T01:35:00.550Z,15.60
2023-05-21T01:36:13.887Z,15.13
2023-05-21T01:37:23.608Z,15.98
2023-05-21T01:38:34.803Z,16.17
2023-05-21T01:39:43.283Z,15.33
2023-05-21T01:40:52.901Z,16.50
2023-05-21T01:41:57.917Z,17.00
2023-05-21T01:43:02.387Z,16.67
2023-05-21T01:44:08.297Z,16.08
2023-05-21T01:45:15.448Z,16.90
2023-05-21T01:46:24.520Z,16.52
2023-05-21T01:47:30.820Z,16.38
2023-05-21T01:48:35.843Z,18.27
2023-05-21T01:49:39.784Z,17.13
2023-05-21T01:50:45.797Z,16.80
2023-05-21T01:51:50.093Z,16.33
2023-05-21T01:52:54.879Z,17.13
2023-05-21T01:54:00.193Z,16.63
2023-05-21T01:55:04.152Z,17.35
2023-05-21T01:56:08.456Z,16.47
2023-05-21T01:57:12.215Z,16.80
2023-05-21T01:58:16.248Z,16.52
2023-05-21T01:59:20.293Z,16.73
2023-05-21T02:00:25.370Z,16.13
2023-05-21T02:01:29.225Z,16.73
2023-05-21T02:02:33.068Z,15.95
2023-05-21T02:03:37.067Z,16.42
2023-05-21T02:04:41.081Z,16.35
2023-05-21T02:05:45.173Z,16.85
2023-05-21T02:06:48.885Z,16.87
2023-05-21T02:07:52.817Z,15.80
2023-05-21T02:08:56.615Z,16.77
2023-05-21T02:10:02.136Z,17.17
2023-05-21T02:11:06.000Z,17.17
2023-05-21T02:12:10.175Z,17.10
2023-05-21T02:13:13.961Z,16.95
2023-05-21T02:14:17.711Z,17.67
2023-05-21T02:15:21.934Z,17.92
2023-05-21T02:16:26.319Z,16.50
2023-05-21T02:17:30.164Z,16.10
2023-05-21T02:18:33.924Z,16.35
2023-05-21T02:19:37.663Z,19.23
2023-05-21T02:20:41.432Z,16.63
2023-05-21T02:21:45.268Z,16.83
2023-05-21T02:22:49.634Z,17.70
2023-05-21T02:23:53.350Z,16.83
2023-05-21T02:24:57.134Z,17.20
2023-05-21T02:26:02.525Z,16.90
2023-05-21T02:27:06.755Z,17.20
2023-05-21T02:28:10.407Z,16.63
2023-05-21T02:29:14.309Z,16.90
2023-05-21T02:30:18.087Z,15.43
2023-05-21T02:31:21.844Z,15.48
2023-05-21T02:32:25.533Z,16.30
2023-05-21T02:33:29.395Z,16.07
2023-05-21T02:34:33.214Z,14.80
2023-05-21T02:35:37.744Z,15.98
2023-05-21T02:36:41.701Z,16.13
2023-05-21T02:37:45.531Z,15.73
2023-05-21T02:38:49.221Z,15.13
2023-05-21T02:39:52.945Z,14.38
2023-05-21T02:40:56.719Z,14.57
2023-05-21T02:42:02.058Z,13.40
2023-05-21T02:43:05.819Z,14.48
2023-05-21T02:44:09.626Z,15.17
2023-05-21T02:45:13.593Z,15.05
2023-05-21T02:46:17.509Z,15.02
2023-05-21T02:47:21.621Z,16.25
2023-05-21T02:48:25.316Z,15.07
2023-05-21T02:49:29.065Z,14.33
2023-05-21T02:50:32.933Z,15.10
2023-05-21T02:51:36.624Z,14.40
2023-05-21T02:52:40.409Z,15.63
2023-05-21T02:53:44.180Z,15.15
2023-05-21T02:54:48.732Z,15.00
2023-05-21T02:55:52.663Z,14.75
2023-05-21T02:56:56.378Z,16.05
2023-05-21T02:58:01.849Z,16.65
2023-05-21T02:59:05.559Z,15.30
2023-05-21T03:00:10.578Z,16.53
2023-05-21T03:01:14.284Z,16.88
2023-05-21T03:02:18.126Z,17.58
2023-05-21T03:03:22.173Z,16.40
2023-05-21T03:04:25.940Z,16.25
2023-05-21T03:05:29.879Z,15.77
2023-05-21T03:06:33.607Z,15.77
2023-05-21T03:07:37.357Z,15.13
2023-05-21T03:08:41.300Z,15.13
2023-05-21T03:09:45.142Z,16.65
2023-05-21T03:10:49.015Z,16.73
2023-05-21T03:11:52.802Z,15.68
2023-05-21T03:12:56.617Z,16.55
2023-05-21T03:14:02.074Z,15.35
2023-05-21T03:15:06.275Z,16.85
2023-05-21T03:16:10.090Z,16.37
2023-05-21T03:17:14.228Z,17.58
2023-05-21T03:18:17.989Z,16.75
2023-05-21T03:19:21.852Z,16.35
2023-05-21T03:20:25.677Z,16.15
2023-05-21T03:21:29.477Z,16.43
2023-05-21T03:22:33.309Z,15.73
2023-05-21T03:23:37.040Z,15.27
2023-05-21T03:24:40.982Z,15.25
2023-05-21T03:25:44.777Z,15.88
2023-05-21T03:26:48.500Z,16.07
2023-05-21T03:27:52.521Z,16.60
2023-05-21T03:28:56.637Z,16.38
2023-05-21T03:30:01.932Z,15.35
2023-05-21T03:31:05.819Z,16.38
2023-05-21T03:32:09.806Z,15.90
2023-05-21T03:33:13.675Z,15.73
2023-05-21T03:34:17.313Z,16.33
2023-05-21T03:35:21.066Z,15.65
2023-05-21T03:36:24.803Z,15.07
2023-05-21T03:37:28.567Z,15.70
2023-05-21T03:38:32.371Z,15.57
2023-05-21T03:39:36.156Z,16.90
2023-05-21T03:40:39.896Z,15.35
2023-05-21T03:41:43.966Z,16.08
2023-05-21T03:42:47.751Z,16.70
2023-05-21T03:43:51.493Z,17.27
2023-05-21T03:44:55.261Z,16.17
2023-05-21T03:46:00.808Z,15.75
2023-05-21T03:47:04.553Z,15.30
2023-05-21T03:48:08.407Z,15.97
2023-05-21T03:49:12.360Z,15.38
2023-05-21T03:50:16.445Z,16.48
2023-05-21T03:51:20.285Z,15.88
2023-05-21T03:52:24.058Z,17.05
2023-05-21T03:53:27.915Z,15.60
2023-05-21T03:54:31.664Z,16.80
2023-05-21T03:55:35.688Z,17.05
2023-05-21T03:56:39.648Z,15.63
2023-05-21T03:57:43.510Z,15.90
2023-05-21T03:58:47.256Z,16.40
2023-05-21T03:59:51.022Z,15.52
2023-05-21T04:00:54.856Z,16.17
2023-05-21T04:02:00.322Z,16.83
2023-05-21T04:03:04.410Z,16.33
2023-05-21T04:04:08.317Z,15.20
2023-05-21T04:05:12.159Z,16.35
2023-05-21T04:06:15.935Z,15.60
2023-05-21T04:07:19.746Z,16.70
2023-05-21T04:08:23.434Z,15.18
2023-05-21T04:09:28.461Z,15.80
2023-05-21T04:10:32.569Z,17.23
2023-05-21T04:11:37.724Z,15.95
2023-05-21T04:12:41.425Z,16.15
2023-05-21T04:13:45.143Z,16.33
2023-05-21T04:14:49.649Z,15.10
2023-05-21T04:15:53.621Z,16.83
2023-05-21T04:16:57.848Z,17.00
2023-05-21T04:18:05.903Z,15.90
2023-05-21T04:19:10.530Z,16.30
2023-05-21T04:20:15.030Z,15.77
2023-05-21T04:21:18.885Z,16.38
2023-05-21T04:22:22.959Z,16.95
2023-05-21T04:23:26.780Z,15.80
2023-05-21T04:24:30.464Z,16.75
2023-05-21T04:25:34.378Z,17.30
2023-05-21T04:26:38.772Z,16.98
2023-05-21T04:27:42.490Z,17.38
2023-05-21T04:28:46.160Z,17.08
2023-05-21T04:29:50.761Z,17.02
2023-05-21T04:30:54.596Z,16.97
2023-05-21T04:31:58.289Z,17.38
2023-05-21T04:33:03.848Z,16.48
2023-05-21T04:34:07.596Z,16.58
2023-05-21T04:35:11.556Z,16.80
2023-05-21T04:36:15.249Z,17.47
2023-05-21T04:37:18.990Z,17.55
2023-05-21T04:38:22.893Z,16.77
2023-05-21T04:39:26.678Z,16.80
2023-05-21T04:40:30.422Z,16.42
2023-05-21T04:41:34.357Z,16.30
2023-05-21T04:42:38.110Z,16.70
2023-05-21T04:43:42.236Z,16.77
2023-05-21T04:44:46.030Z,17.10
2023-05-21T04:45:49.842Z,16.42
2023-05-21T04:46:53.790Z,16.57
2023-05-21T04:47:57.624Z,17.25
2023-05-21T04:49:03.087Z,17.35
2023-05-21T04:50:08.017Z,16.00
2023-05-21T04:51:11.769Z,16.27
2023-05-21T04:52:15.691Z,17.10
2023-05-21T04:53:19.582Z,16.42
2023-05-21T04:54:23.605Z,16.33
2023-05-21T04:55:27.302Z,16.92
2023-05-21T04:56:31.056Z,17.75
2023-05-21T04:57:34.851Z,17.73
2023-05-21T04:58:38.611Z,18.13
2023-05-21T04:59:42.474Z,17.92
2023-05-21T05:00:46.523Z,17.38
2023-05-21T05:01:50.338Z,17.17
2023-05-21T05:02:54.134Z,16.63
2023-05-21T05:03:58.037Z,16.48
2023-05-21T05:05:04.030Z,16.67
2023-05-21T05:06:08.286Z,16.80
2023-05-21T05:07:12.086Z,16.05
2023-05-21T05:08:16.216Z,15.53
2023-05-21T05:09:20.238Z,15.65
2023-05-21T05:10:24.032Z,16.88
2023-05-21T05:11:27.798Z,16.48
2023-05-21T05:12:34.742Z,16.48
2023-05-21T05:13:38.645Z,16.17
2023-05-21T05:14:42.414Z,16.90
2023-05-21T05:15:48.067Z,16.48
2023-05-21T05:16:53.303Z,16.52
2023-05-21T05:17:57.180Z,16.05
2023-05-21T05:19:00.987Z,17.20
2023-05-21T05:20:07.665Z,16.00
2023-05-21T05:21:11.433Z,15.60
2023-05-21T05:22:15.095Z,15.50
2023-05-21T05:23:18.928Z,16.15
2023-05-21T05:24:22.897Z,17.23
2023-05-21T05:25:26.783Z,15.35
2023-05-21T05:26:30.446Z,16.20
2023-05-21T05:27:35.488Z,16.25
2023-05-21T05:28:40.802Z,15.20
2023-05-21T05:29:45.557Z,15.67
2023-05-21T05:30:49.375Z,15.48
2023-05-21T05:31:53.138Z,15.73
2023-05-21T05:32:56.873Z,15.50
2023-05-21T05:34:00.684Z,15.80
2023-05-21T05:35:07.139Z,14.70
2023-05-21T05:36:10.815Z,15.00
2023-05-21T05:37:14.495Z,14.88
2023-05-21T05:38:18.330Z,16.20
2023-05-21T05:39:22.043Z,16.20
2023-05-21T05:40:25.788Z,15.90
2023-05-21T05:41:29.557Z,16.30
2023-05-21T05:42:33.273Z,15.77
2023-05-21T05:43:36.990Z,15.55
2023-05-21T05:44:40.751Z,15.27
2023-05-21T05:45:44.468Z,16.30
2023-05-21T05:46:48.246Z,15.13
2023-05-21T05:47:52.137Z,15.32
2023-05-21T05:48:56.047Z,15.27
2023-05-21T05:49:59.800Z,15.52
2023-05-21T05:51:05.412Z,15.33
2023-05-21T05:52:09.280Z,15.23
2023-05-21T05:53:13.011Z,14.82
2023-05-21T05:54:16.963Z,14.75
2023-05-21T05:55:20.706Z,15.32
2023-05-21T05:56:24.546Z,15.30
2023-05-21T05:57:28.792Z,15.93
2023-05-21T05:58:32.615Z,15.45
2023-05-21T05:59:36.656Z,15.73
2023-05-21T06:00:40.371Z,15.38
2023-05-21T06:01:44.410Z,16.47
2023-05-21T06:02:48.308Z,16.90
2023-05-21T06:03:52.125Z,17.48
2023-05-21T06:04:55.966Z,16.55
2023-05-21T06:05:59.751Z,16.23
2023-05-21T06:07:05.525Z,16.60
2023-05-21T06:08:09.212Z,16.75
2023-05-21T06:09:13.244Z,17.70
2023-05-21T06:10:17.125Z,16.70
2023-05-21T06:11:21.223Z,16.05
2023-05-21T06:12:26.294Z,16.93
2023-05-21T06:13:30.072Z,15.82
2023-05-21T06:14:33.966Z,16.80
2023-05-21T06:15:37.965Z,17.10
2023-05-21T06:16:42.011Z,16.70
2023-05-21T06:17:46.013Z,16.03
2023-05-21T06:18:49.928Z,15.63
2023-05-21T06:19:53.774Z,16.50
2023-05-21T06:20:57.625Z,15.95
2023-05-21T06:22:01.295Z,17.25
2023-05-21T06:23:06.686Z,16.13
2023-05-21T06:24:10.448Z,15.90
2023-05-21T06:25:14.173Z,16.92
2023-05-21T06:26:17.926Z,15.38
2023-05-21T06:27:21.642Z,16.02
2023-05-21T06:28:25.417Z,15.93
2023-05-21T06:29:29.204Z,15.95
2023-05-21T06:30:32.985Z,15.50
2023-05-21T06:31:36.689Z,15.95
2023-05-21T06:32:40.554Z,15.60
2023-05-21T06:33:44.523Z,14.80
2023-05-21T06:34:48.349Z,16.00
2023-05-21T06:35:52.264Z,15.05
2023-05-21T06:36:56.094Z,15.88
2023-05-21T06:38:00.168Z,16.42
2023-05-21T06:39:05.827Z,16.13
2023-05-21T06:40:10.544Z,15.98
2023-05-21T06:41:14.249Z,16.25
2023-05-21T06:42:18.082Z,14.75
2023-05-21T06:43:21.889Z,14.60
2023-05-21T06:44:25.816Z,15.27
2023-05-21T06:45:29.557Z,15.65
2023-05-21T06:46:33.440Z,15.85
2023-05-21T06:47:37.334Z,14.63
2023-05-21T06:48:41.084Z,15.23
2023-05-21T06:49:44.830Z,15.20
2023-05-21T06:50:48.613Z,14.82
2023-05-21T06:51:52.812Z,15.32
2023-05-21T06:52:56.662Z,14.23
2023-05-21T06:54:00.423Z,14.98
2023-05-21T06:55:06.535Z,14.37
2023-05-21T06:56:10.314Z,15.27
2023-05-21T06:57:15.004Z,15.25
2023-05-21T06:58:18.790Z,13.95
2023-05-21T06:59:22.443Z,13.95
2023-05-21T07:00:26.247Z,14.30
2023-05-21T07:01:29.966Z,15.93
2023-05-21T07:02:33.780Z,15.43
2023-05-21T07:03:37.989Z,15.55
2023-05-21T07:04:41.741Z,14.90
2023-05-21T07:05:45.476Z,14.90
2023-05-21T07:06:49.226Z,15.35
2023-05-21T07:07:53.014Z,15.02
2023-05-21T07:08:56.815Z,15.23
2023-05-21T07:10:00.596Z,15.65
2023-05-21T07:11:06.133Z,14.67
2023-05-21T07:12:09.882Z,15.93
2023-05-21T07:13:13.647Z,14.75
2023-05-21T07:14:17.361Z,14.77
2023-05-21T07:15:21.321Z,14.60
2023-05-21T07:16:25.118Z,14.33
2023-05-21T07:17:28.852Z,15.23
2023-05-21T07:18:32.860Z,15.50
2023-05-21T07:19:36.635Z,15.52
2023-05-21T07:20:40.318Z,13.75
2023-05-21T07:21:44.105Z,14.30
2023-05-21T07:22:47.831Z,14.20
2023-05-21T07:23:51.570Z,14.95
2023-05-21T07:24:55.374Z,13.82
2023-05-21T07:25:59.111Z,14.93
2023-05-21T07:27:11.274Z,14.50
2023-05-21T07:28:21.758Z,14.30
2023-05-21T07:29:25.498Z,13.90
2023-05-21T07:30:29.187Z,15.20
2023-05-21T07:31:33.078Z,15.80
2023-05-21T07:32:36.906Z,14.97
2023-05-21T07:33:40.648Z,15.70
2023-05-21T07:34:44.460Z,14.85
2023-05-21T07:35:48.150Z,14.60
2023-05-21T07:36:51.863Z,14.40
2023-05-21T07:37:55.810Z,14.20
2023-05-21T07:38:59.562Z,13.40
2023-05-21T07:40:03.281Z,14.52
2023-05-21T07:41:07.018Z,13.88
2023-05-21T07:42:12.448Z,13.95
2023-05-21T07:43:16.234Z,13.90
2023-05-21T07:44:19.969Z,12.93
2023-05-21T07:45:23.723Z,13.60
2023-05-21T07:46:27.457Z,13.90
2023-05-21T07:47:31.181Z,13.45
2023-05-21T07:48:35.617Z,12.67
2023-05-21T07:49:39.602Z,12.85
2023-05-21T07:50:43.376Z,12.82
2023-05-21T07:51:47.156Z,14.30
2023-05-21T07:52:50.896Z,13.35
2023-05-21T07:53:55.363Z,13.77
2023-05-21T07:54:59.937Z,14.40
2023-05-21T07:56:03.673Z,15.23
2023-05-21T07:57:07.563Z,13.75
2023-05-21T07:58:12.948Z,13.40
2023-05-21T07:59:18.188Z,12.73
2023-05-21T08:00:25.186Z,13.05
2023-05-21T08:01:29.571Z,13.48
2023-05-21T08:02:33.386Z,14.38
2023-05-21T08:03:37.316Z,13.90
2023-05-21T08:04:41.491Z,13.33
2023-05-21T08:05:45.810Z,13.57
2023-05-21T08:06:49.584Z,13.85
2023-05-21T08:07:53.382Z,13.63
2023-05-21T08:08:57.229Z,14.82
2023-05-21T08:10:02.681Z,13.47
2023-05-21T08:11:06.852Z,13.57
2023-05-21T08:12:10.642Z,13.68
2023-05-21T08:13:17.335Z,13.82
2023-05-21T08:14:21.044Z,14.80
2023-05-21T08:15:24.839Z,13.70
2023-05-21T08:16:28.568Z,14.30
2023-05-21T08:17:32.367Z,14.25
2023-05-21T08:18:36.159Z,14.15
2023-05-21T08:19:39.801Z,15.00
2023-05-21T08:20:43.704Z,14.80
2023-05-21T08:21:47.440Z,14.25
2023-05-21T08:22:51.128Z,13.95
2023-05-21T08:23:54.778Z,13.00
2023-05-21T08:24:58.554Z,12.93
2023-05-21T08:26:02.368Z,13.07
2023-05-21T08:27:06.618Z,13.82
2023-05-21T08:28:10.412Z,12.60
2023-05-21T08:29:15.871Z,12.90
2023-05-21T08:30:19.712Z,13.07
2023-05-21T08:31:23.533Z,12.70
2023-05-21T08:32:27.408Z,12.98
2023-05-21T08:33:31.216Z,13.63
2023-05-21T08:34:34.885Z,12.57
2023-05-21T08:35:38.908Z,13.50
2023-05-21T08:36:42.906Z,14.00
2023-05-21T08:37:46.652Z,14.02
2023-05-21T08:38:50.407Z,14.07
2023-05-21T08:39:54.034Z,12.65
2023-05-21T08:40:58.776Z,12.65
2023-05-21T08:42:10.790Z,12.90
2023-05-21T08:43:14.672Z,13.05
2023-05-21T08:44:25.797Z,13.70
2023-05-21T08:45:35.287Z,13.38
2023-05-21T08:46:41.816Z,12.70
2023-05-21T08:47:46.009Z,12.93
2023-05-21T08:48:50.000Z,14.20
2023-05-21T08:49:54.250Z,13.50
2023-05-21T08:50:59.557Z,13.10
2023-05-21T08:52:04.023Z,12.55
2023-05-21T08:53:15.814Z,12.00
2023-05-21T08:54:28.258Z,13.27
2023-05-21T08:55:33.207Z,13.45
2023-05-21T08:56:37.889Z,13.32
2023-05-21T08:57:44.437Z,13.93
2023-05-21T08:58:49.749Z,12.97
2023-05-21T08:59:55.601Z,12.63
2023-05-21T09:00:59.626Z,12.93
2023-05-21T09:02:04.854Z,11.70
2023-05-21T09:03:08.822Z,12.90
2023-05-21T09:04:20.838Z,12.80
2023-05-21T09:05:26.063Z,13.57
2023-05-21T09:06:29.963Z,12.75
2023-05-21T09:07:40.189Z,11.48
2023-05-21T09:08:46.002Z,11.02
2023-05-21T09:09:56.238Z,12.37
2023-05-21T09:11:00.017Z,12.60
2023-05-21T09:12:03.938Z,11.88
2023-05-21T09:13:07.752Z,12.20
2023-05-21T09:14:14.206Z,11.70
2023-05-21T09:15:19.934Z,12.70
2023-05-21T09:16:24.071Z,12.60
2023-05-21T09:17:27.988Z,12.23
2023-05-21T09:18:31.833Z,12.13
2023-05-21T09:19:35.975Z,11.98
2023-05-21T09:20:40.628Z,12.07
2023-05-21T09:21:44.570Z,12.85
2023-05-21T09:22:49.294Z,11.65
2023-05-21T09:23:57.129Z,11.70
2023-05-21T09:25:04.885Z,12.85
2023-05-21T09:26:13.562Z,12.37
2023-05-21T09:27:18.977Z,11.45
2023-05-21T09:28:22.735Z,12.60
2023-05-21T09:29:27.219Z,12.82
2023-05-21T09:30:35.741Z,12.13
2023-05-21T09:31:45.485Z,12.40
2023-05-21T09:32:54.584Z,13.70
2023-05-21T09:33:58.280Z,12.60
2023-05-21T09:35:08.449Z,12.82
2023-05-21T09:36:12.246Z,13.07
2023-05-21T09:37:27.149Z,12.50
2023-05-21T09:38:34.598Z,11.95
2023-05-21T09:39:41.926Z,12.43
2023-05-21T09:40:46.474Z,12.15
2023-05-21T09:41:50.169Z,12.70
2023-05-21T09:42:55.293Z,12.60
2023-05-21T09:44:01.140Z,11.95
2023-05-21T09:45:05.688Z,13.82
2023-05-21T09:46:11.376Z,13.02
2023-05-21T09:47:21.095Z,12.23
2023-05-21T09:48:38.422Z,12.13
2023-05-21T09:49:45.677Z,12.20
2023-05-21T09:50:49.402Z,13.30
2023-05-21T09:51:56.628Z,12.43
2023-05-21T09:53:00.565Z,12.25
2023-05-21T09:54:04.732Z,11.53
2023-05-21T09:55:11.487Z,11.93
2023-05-21T09:56:15.301Z,11.75
2023-05-21T09:57:25.136Z,12.05
2023-05-21T09:58:28.979Z,11.75
2023-05-21T09:59:39.410Z,12.13
2023-05-21T10:00:43.363Z,11.60
2023-05-21T10:01:51.236Z,12.05
2023-05-21T10:02:57.058Z,11.50
2023-05-21T10:04:03.769Z,12.45
2023-05-21T10:05:11.326Z,12.20
2023-05-21T10:06:17.794Z,13.07
2023-05-21T10:07:22.399Z,12.40
2023-05-21T10:08:30.966Z,11.65
2023-05-21T10:09:35.210Z,11.93
2023-05-21T10:10:41.510Z,11.70
2023-05-21T10:11:46.278Z,11.98
2023-05-21T10:12:56.049Z,12.18
2023-05-21T10:14:05.752Z,12.15
2023-05-21T10:15:13.804Z,11.80
2023-05-21T10:16:18.927Z,12.17
2023-05-21T10:17:26.417Z,11.82
2023-05-21T10:18:33.170Z,11.30
2023-05-21T10:19:38.260Z,11.60
2023-05-21T10:20:42.118Z,11.30
2023-05-21T10:21:46.618Z,11.73
2023-05-21T10:22:52.042Z,11.30
2023-05-21T10:23:58.374Z,11.35
2023-05-21T10:25:02.838Z,12.30
2023-05-21T10:26:07.959Z,12.20
2023-05-21T10:27:12.492Z,11.53
2023-05-21T10:28:21.174Z,11.90
2023-05-21T10:29:26.168Z,11.95
2023-05-21T10:30:30.887Z,12.00
2023-05-21T10:31:34.879Z,11.95
2023-05-21T10:32:41.891Z,12.53
2023-05-21T10:33:45.868Z,11.85
2023-05-21T10:34:50.408Z,11.90
2023-05-21T10:35:55.472Z,11.27
2023-05-21T10:37:01.539Z,11.85
2023-05-21T10:38:06.752Z,11.77
2023-05-21T10:39:13.611Z,12.15
2023-05-21T10:40:17.463Z,11.95
2023-05-21T10:41:22.854Z,12.45
2023-05-21T10:43:03.748Z,13.13
2023-05-21T10:44:17.336Z,12.60
2023-05-21T10:45:31.056Z,12.32
2023-05-21T10:46:59.769Z,12.68
2023-05-21T10:48:21.723Z,12.27
2023-05-21T10:49:36.190Z,14.23
2023-05-21T10:50:55.333Z,14.17
2023-05-21T10:52:10.072Z,13.75
2023-05-21T10:53:25.970Z,13.98
2023-05-21T10:54:49.249Z,14.02
2023-05-21T10:56:06.493Z,14.27
2023-05-21T10:57:17.042Z,13.30
2023-05-21T10:58:55.207Z,13.57
2023-05-21T11:00:00.092Z,14.23
2023-05-21T11:01:04.735Z,13.95
2023-05-21T11:02:10.654Z,13.77
2023-05-21T11:03:16.907Z,15.40
2023-05-21T11:04:24.334Z,14.40
2023-05-21T11:05:41.045Z,13.68
2023-05-21T11:06:48.687Z,14.20
2023-05-21T11:07:53.192Z,13.98
2023-05-21T11:08:56.880Z,13.33
2023-05-21T11:10:35.716Z,14.25
2023-05-21T11:11:44.573Z,15.70
2023-05-21T11:13:23.155Z,14.40
2023-05-21T11:14:34.436Z,14.00
2023-05-21T11:16:13.720Z,14.17
2023-05-21T11:17:36.780Z,13.40
2023-05-21T11:19:00.280Z,13.65
2023-05-21T11:20:08.725Z,13.55
2023-05-21T11:21:14.367Z,13.93
2023-05-21T11:22:24.966Z,13.77
2023-05-21T11:23:53.026Z,13.38
2023-05-21T11:25:03.539Z,13.27
2023-05-21T11:26:08.400Z,12.93
2023-05-21T11:27:12.495Z,12.80
2023-05-21T11:28:16.249Z,13.10
2023-05-21T11:29:20.560Z,13.30
2023-05-21T11:30:24.351Z,13.77
2023-05-21T11:31:28.608Z,12.30
2023-05-21T11:32:32.701Z,12.82
2023-05-21T11:33:36.469Z,12.30
2023-05-21T11:34:43.674Z,12.63
2023-05-21T11:35:58.840Z,13.18
2023-05-21T11:37:30.030Z,13.00
2023-05-21T11:38:33.825Z,12.52
2023-05-21T11:39:41.296Z,13.83
2023-05-21T11:40:53.223Z,13.25
2023-05-21T11:42:01.032Z,13.48
2023-05-21T11:43:06.265Z,14.23
2023-05-21T11:44:10.672Z,14.23
2023-05-21T11:45:19.288Z,14.33
2023-05-21T11:46:23.187Z,14.02
2023-05-21T11:47:27.956Z,13.68
2023-05-21T11:48:32.786Z,14.95
2023-05-21T11:49:37.218Z,14.07
2023-05-21T11:50:42.838Z,14.50
2023-05-21T11:51:46.623Z,13.48
2023-05-21T11:52:51.273Z,15.73
2023-05-21T11:53:55.275Z,14.85
2023-05-21T11:54:59.080Z,14.30
2023-05-21T11:56:03.823Z,14.03
2023-05-21T11:57:08.755Z,14.15
2023-05-21T11:58:14.240Z,15.48
2023-05-21T11:59:20.713Z,14.05
2023-05-21T12:00:24.469Z,15.38
2023-05-21T12:01:28.233Z,14.23
2023-05-21T12:02:33.696Z,13.73
2023-05-21T12:03:37.584Z,13.70
2023-05-21T12:04:41.566Z,14.35
2023-05-21T12:05:50.215Z,13.60
2023-05-21T12:06:54.044Z,13.57
2023-05-21T12:07:57.748Z,14.85
2023-05-21T12:09:01.535Z,15.00
2023-05-21T12:10:05.739Z,13.75
2023-05-21T12:11:09.559Z,14.00
2023-05-21T12:12:14.875Z,13.80
2023-05-21T12:13:18.640Z,13.90
2023-05-21T12:14:23.232Z,16.13
2023-05-21T12:15:28.937Z,14.77
2023-05-21T12:16:33.068Z,14.02
2023-05-21T12:17:37.047Z,14.17
2023-05-21T12:18:40.865Z,14.85
2023-05-21T12:19:44.967Z,14.77
2023-05-21T12:20:52.363Z,15.35
2023-05-21T12:21:56.242Z,14.23
2023-05-21T12:23:00.008Z,14.87
2023-05-21T12:24:03.934Z,14.30
2023-05-21T12:25:08.705Z,14.68
2023-05-21T12:26:13.004Z,13.95
2023-05-21T12:27:16.925Z,14.50
2023-05-21T12:28:21.550Z,14.23
2023-05-21T12:29:25.730Z,13.57
2023-05-21T12:30:29.819Z,14.18
2023-05-21T12:31:33.666Z,13.85
2023-05-21T12:32:41.211Z,15.30
2023-05-21T12:33:46.468Z,14.00
2023-05-21T12:34:51.577Z,13.65
2023-05-21T12:35:57.247Z,14.15
2023-05-21T12:37:01.199Z,14.98
2023-05-21T12:38:05.053Z,14.27
2023-05-21T12:39:11.328Z,14.20
2023-05-21T12:40:15.503Z,15.20
2023-05-21T12:41:19.872Z,14.18
2023-05-21T12:42:27.668Z,13.52
2023-05-21T12:43:33.133Z,14.65
2023-05-21T12:44:37.153Z,13.60
2023-05-21T12:45:41.381Z,13.88
2023-05-21T12:46:45.374Z,14.73
2023-05-21T12:47:50.092Z,13.98
2023-05-21T12:48:55.274Z,15.15
2023-05-21T12:49:59.286Z,13.93
2023-05-21T12:51:04.853Z,14.10
2023-05-21T12:52:10.973Z,14.57
2023-05-21T12:53:14.708Z,14.32
2023-05-21T12:54:18.441Z,14.68
2023-05-21T12:55:24.390Z,14.13
2023-05-21T12:56:28.219Z,14.60
2023-05-21T12:57:37.564Z,14.48
2023-05-21T12:58:41.617Z,13.80
2023-05-21T12:59:52.941Z,14.43
2023-05-21T13:00:56.884Z,15.57
2023-05-21T13:02:02.089Z,14.82
2023-05-21T13:03:06.217Z,15.43
2023-05-21T13:04:10.454Z,14.73
2023-05-21T13:05:18.733Z,15.48
2023-05-21T13:06:24.071Z,14.80
2023-05-21T13:07:28.440Z,14.48
2023-05-21T13:08:32.216Z,14.68
2023-05-21T13:09:35.949Z,15.23
2023-05-21T13:10:40.058Z,15.52
2023-05-21T13:11:43.912Z,14.87
2023-05-21T13:12:47.791Z,15.93
2023-05-21T13:13:51.940Z,14.82
2023-05-21T13:14:58.088Z,14.50
2023-05-21T13:16:01.979Z,17.70
2023-05-21T13:17:05.895Z,15.93
2023-05-21T13:18:09.990Z,15.23
2023-05-21T13:19:13.850Z,16.10
2023-05-21T13:20:20.319Z,15.98
2023-05-21T13:21:25.929Z,15.77
2023-05-21T13:22:29.686Z,14.80
2023-05-21T13:23:33.466Z,15.75
2023-05-21T13:24:37.381Z,15.95
2023-05-21T13:25:41.323Z,16.90
2023-05-21T13:26:45.120Z,16.05
2023-05-21T13:27:49.381Z,15.77
2023-05-21T13:28:53.206Z,17.45
2023-05-21T13:29:57.109Z,16.58
2023-05-21T13:31:00.869Z,16.08
2023-05-21T13:32:04.980Z,16.30
2023-05-21T13:33:08.790Z,15.97
2023-05-21T13:34:13.278Z,15.27
2023-05-21T13:35:17.404Z,15.73
2023-05-21T13:36:21.390Z,16.10
2023-05-21T13:37:26.759Z,16.13
2023-05-21T13:38:30.452Z,16.30
2023-05-21T13:39:34.296Z,15.88
2023-05-21T13:40:39.206Z,16.58
2023-05-21T13:41:43.168Z,16.52
2023-05-21T13:42:48.052Z,16.23
2023-05-21T13:43:51.891Z,16.37
2023-05-21T13:44:55.985Z,15.57
2023-05-21T13:45:59.850Z,16.77
2023-05-21T13:47:04.218Z,15.70
2023-05-21T13:48:08.335Z,15.90
2023-05-21T13:49:12.050Z,16.57
2023-05-21T13:50:16.550Z,16.67
2023-05-21T13:51:37.484Z,16.35
2023-05-21T13:52:44.204Z,17.10
2023-05-21T13:53:47.969Z,16.58
2023-05-21T13:54:51.758Z,17.00
2023-05-21T13:55:55.609Z,16.15
2023-05-21T13:56:59.509Z,16.00
2023-05-21T13:58:03.789Z,15.85
2023-05-21T13:59:07.543Z,16.30
2023-05-21T14:00:12.285Z,16.63